Time;durP1;ratioP1;P1;durP2;ratioP2;P2;SDS_P1;SDS_P2;PMS_P1;PMS_P2;Temp;Humidity;BMP_temperature;BMP_pressure;BME280_temperature;BME280_humidity;BME280_pressure;Samples;Min_cycle;Max_cycle;Signal;HPM_P1;HPM_P2
2023/09/16 00:00:09;;;;;;;13.65;8.60;;;;;;;;;;5086509;28;20430;-71
2023/09/16 00:02:36;;;;;;;18.17;8.55;;;;;;;;;;5085936;28;20039;-71
2023/09/16 00:05:03;;;;;;;18.75;9.23;;;;;;;;;;5085698;28;20090;-71
2023/09/16 00:07:29;;;;;;;16.88;8.40;;;;;;;;;;5085727;28;20547;-71
2023/09/16 00:09:56;;;;;;;20.95;9.07;;;;;;;;;;5085793;28;20024;-71
2023/09/16 00:12:26;;;;;;;17.38;9.20;;;;;;;;;;5087109;28;20055;-71
2023/09/16 00:14:52;;;;;;;14.73;8.30;;;;;;;;;;5087330;28;20020;-71
2023/09/16 00:17:19;;;;;;;11.68;8.85;;;;;;;;;;5085611;28;20596;-71
2023/09/16 00:19:45;;;;;;;15.63;8.30;;;;;;;;;;5084543;28;20058;-72
2023/09/16 00:22:14;;;;;;;21.70;8.10;;;;;;;;;;5085217;28;20500;-72
2023/09/16 00:24:40;;;;;;;11.73;8.23;;;;;;;;;;5085633;28;20031;-72
2023/09/16 00:27:09;;;;;;;11.68;7.50;;;;;;;;;;5085410;28;20082;-70
2023/09/16 00:29:35;;;;;;;15.00;7.70;;;;;;;;;;5085754;28;20028;-72
2023/09/16 00:32:04;;;;;;;16.63;8.65;;;;;;;;;;5088492;28;20103;-70
2023/09/16 00:34:30;;;;;;;16.05;8.50;;;;;;;;;;5086519;28;20035;-70
2023/09/16 00:36:56;;;;;;;11.73;8.75;;;;;;;;;;5088652;28;20028;-70
2023/09/16 00:39:23;;;;;;;16.38;8.25;;;;;;;;;;5088652;28;20366;-70
2023/09/16 00:41:50;;;;;;;18.40;9.15;;;;;;;;;;5089686;28;20500;-70
2023/09/16 00:44:16;;;;;;;12.65;6.88;;;;;;;;;;5090068;28;20028;-71
2023/09/16 00:46:42;;;;;;;12.00;7.47;;;;;;;;;;5090084;28;20027;-70
2023/09/16 00:49:08;;;;;;;14.05;7.97;;;;;;;;;;5091536;28;20107;-70
2023/09/16 00:51:34;;;;;;;12.85;7.68;;;;;;;;;;5090131;28;20059;-70
2023/09/16 00:54:01;;;;;;;12.63;7.32;;;;;;;;;;5090697;28;20051;-71
2023/09/16 00:56:29;;;;;;;11.73;7.30;;;;;;;;;;5095011;28;20033;-71
2023/09/16 00:58:58;;;;;;;17.42;8.20;;;;;;;;;;5094163;28;20111;-71
2023/09/16 01:01:25;;;;;;;12.45;7.90;;;;;;;;;;5095675;28;20032;-71
2023/09/16 01:03:52;;;;;;;12.57;7.53;;;;;;;;;;5094637;28;20028;-70
2023/09/16 01:06:19;;;;;;;9.98;7.30;;;;;;;;;;5077473;28;20032;-70
2023/09/16 01:08:46;;;;;;;11.23;7.25;;;;;;;;;;5094987;28;20423;-70
2023/09/16 01:11:12;;;;;;;10.55;7.32;;;;;;;;;;5093435;28;20402;-72
2023/09/16 01:13:39;;;;;;;12.23;7.63;;;;;;;;;;5093635;28;20023;-71
2023/09/16 01:16:25;;;;;;;15.07;7.97;;;;;;;;;;5094745;28;20036;-71
2023/09/16 01:18:57;;;;;;;16.77;9.43;;;;;;;;;;5093134;28;20028;-71
2023/09/16 01:21:23;;;;;;;15.75;8.77;;;;;;;;;;5094321;28;20074;-71
2023/09/16 01:24:15;;;;;;;16.83;9.48;;;;;;;;;;5093078;28;20024;-71
2023/09/16 01:26:41;;;;;;;17.08;11.07;;;;;;;;;;5094484;28;20589;-71
2023/09/16 01:29:07;;;;;;;14.80;10.60;;;;;;;;;;5093002;28;20107;-71
2023/09/16 01:31:33;;;;;;;15.77;10.20;;;;;;;;;;5076216;28;20032;-71
2023/09/16 01:34:03;;;;;;;12.85;8.02;;;;;;;;;;5093024;28;20060;-70
2023/09/16 01:36:31;;;;;;;13.07;8.85;;;;;;;;;;5092936;28;20059;-71
2023/09/16 01:39:03;;;;;;;15.23;8.38;;;;;;;;;;5094274;28;20054;-71
2023/09/16 01:41:30;;;;;;;14.85;10.07;;;;;;;;;;5093022;28;20040;-71
2023/09/16 01:43:56;;;;;;;17.23;11.23;;;;;;;;;;5093082;28;20047;-71
2023/09/16 01:46:22;;;;;;;11.00;8.65;;;;;;;;;;5094166;28;20056;-71
2023/09/16 01:48:47;;;;;;;11.40;8.15;;;;;;;;;;5075954;28;20504;-71
2023/09/16 01:51:14;;;;;;;14.48;8.73;;;;;;;;;;5092694;28;20036;-71
2023/09/16 01:53:40;;;;;;;13.77;9.35;;;;;;;;;;5092497;28;20024;-71
2023/09/16 01:56:06;;;;;;;14.48;7.32;;;;;;;;;;5093721;28;20046;-71
2023/09/16 01:58:32;;;;;;;13.13;7.78;;;;;;;;;;5092526;28;20110;-70
2023/09/16 02:00:57;;;;;;;11.68;7.50;;;;;;;;;;5092308;28;20066;-71
2023/09/16 02:03:23;;;;;;;11.25;7.70;;;;;;;;;;5092510;28;20088;-70
2023/09/16 02:05:49;;;;;;;15.35;7.63;;;;;;;;;;5091324;28;20032;-71
2023/09/16 02:08:15;;;;;;;14.32;7.78;;;;;;;;;;5092341;28;20786;-71
2023/09/16 02:10:41;;;;;;;12.23;6.47;;;;;;;;;;5092029;28;20068;-71
2023/09/16 02:13:07;;;;;;;12.45;7.38;;;;;;;;;;5091948;28;21237;-71
2023/09/16 02:15:34;;;;;;;12.85;7.35;;;;;;;;;;5092095;28;20032;-71
2023/09/16 02:18:00;;;;;;;10.73;8.32;;;;;;;;;;5092011;28;20440;-71
2023/09/16 02:20:26;;;;;;;14.88;9.27;;;;;;;;;;5091649;28;20049;-71
2023/09/16 02:22:52;;;;;;;13.90;8.95;;;;;;;;;;5092316;28;20122;-70
2023/09/16 02:25:18;;;;;;;14.40;10.00;;;;;;;;;;5091992;28;20039;-71
2023/09/16 02:27:43;;;;;;;10.82;8.68;;;;;;;;;;5092056;28;20020;-71
2023/09/16 02:30:09;;;;;;;17.45;8.35;;;;;;;;;;5093026;28;20036;-71
2023/09/16 02:32:35;;;;;;;14.82;8.10;;;;;;;;;;5093196;28;20028;-71
2023/09/16 02:35:01;;;;;;;12.25;7.82;;;;;;;;;;5084825;28;20028;-71
2023/09/16 02:37:26;;;;;;;12.80;9.18;;;;;;;;;;5091463;28;20024;-71
2023/09/16 02:39:52;;;;;;;16.08;9.57;;;;;;;;;;5091656;28;20042;-71
2023/09/16 02:42:18;;;;;;;14.25;10.00;;;;;;;;;;5091879;28;20499;-71
2023/09/16 02:44:43;;;;;;;15.40;9.90;;;;;;;;;;5091492;28;20055;-71
2023/09/16 02:47:09;;;;;;;18.98;9.32;;;;;;;;;;5085511;28;20016;-71
2023/09/16 02:49:37;;;;;;;13.98;8.82;;;;;;;;;;5086923;28;20042;-71
2023/09/16 02:52:03;;;;;;;13.77;8.25;;;;;;;;;;5089577;28;20491;-71
2023/09/16 02:54:29;;;;;;;13.48;8.27;;;;;;;;;;5090172;28;20115;-71
2023/09/16 02:56:54;;;;;;;11.35;7.45;;;;;;;;;;5096067;28;20051;-70
2023/09/16 02:59:20;;;;;;;13.15;8.10;;;;;;;;;;5088553;28;20038;-71
2023/09/16 03:01:46;;;;;;;16.33;8.02;;;;;;;;;;5090016;28;20230;-71
2023/09/16 03:04:12;;;;;;;25.83;9.50;;;;;;;;;;5071044;28;20042;-71
2023/09/16 03:06:38;;;;;;;19.00;7.80;;;;;;;;;;5086597;28;20016;-72
2023/09/16 03:09:04;;;;;;;16.15;8.65;;;;;;;;;;5070304;28;20150;-71
2023/09/16 03:11:30;;;;;;;26.65;8.93;;;;;;;;;;5070660;28;20024;-72
2023/09/16 03:13:56;;;;;;;20.33;8.70;;;;;;;;;;5089347;28;20035;-71
2023/09/16 03:16:23;;;;;;;15.13;8.25;;;;;;;;;;5077145;28;20040;-71
2023/09/16 03:18:53;;;;;;;16.65;8.65;;;;;;;;;;5064474;28;20068;-71
2023/09/16 03:21:23;;;;;;;17.30;8.35;;;;;;;;;;5067597;28;20031;-72
2023/09/16 03:23:51;;;;;;;15.00;8.27;;;;;;;;;;5062838;28;20043;-70
2023/09/16 03:26:18;;;;;;;14.88;8.13;;;;;;;;;;5068016;28;20025;-72
2023/09/16 03:28:47;;;;;;;17.80;8.48;;;;;;;;;;5051648;28;20393;-71
2023/09/16 03:31:15;;;;;;;36.67;14.40;;;;;;;;;;5064040;28;20037;-71
2023/09/16 03:33:41;;;;;;;23.33;9.57;;;;;;;;;;5082049;28;20744;-71
2023/09/16 03:36:08;;;;;;;20.15;8.95;;;;;;;;;;5067956;28;20040;-71
2023/09/16 03:38:37;;;;;;;25.75;9.77;;;;;;;;;;5065160;28;20070;-72
2023/09/16 03:41:03;;;;;;;19.20;7.93;;;;;;;;;;5062308;28;20020;-71
2023/09/16 03:43:31;;;;;;;12.73;6.85;;;;;;;;;;5068357;28;20432;-72
2023/09/16 03:45:58;;;;;;;18.83;8.05;;;;;;;;;;5082986;28;20036;-71
2023/09/16 03:48:24;;;;;;;10.95;6.85;;;;;;;;;;5067934;28;20367;-72
2023/09/16 03:50:50;;;;;;;20.70;7.93;;;;;;;;;;5069055;28;20095;-72
2023/09/16 03:53:18;;;;;;;24.15;9.05;;;;;;;;;;5064583;28;20113;-72
2023/09/16 03:55:44;;;;;;;14.27;6.97;;;;;;;;;;5067937;28;20486;-72
2023/09/16 03:58:11;;;;;;;12.27;7.65;;;;;;;;;;5051448;28;20489;-71
2023/09/16 04:00:36;;;;;;;16.00;7.88;;;;;;;;;;5068722;28;20029;-72
2023/09/16 04:03:02;;;;;;;21.67;8.93;;;;;;;;;;5067832;28;20059;-71
2023/09/16 04:05:28;;;;;;;26.83;8.95;;;;;;;;;;5067823;28;20032;-71
2023/09/16 04:07:54;;;;;;;34.35;11.20;;;;;;;;;;5085164;28;20021;-72
2023/09/16 04:10:19;;;;;;;26.10;9.77;;;;;;;;;;5069019;28;20043;-71
2023/09/16 04:12:45;;;;;;;39.35;10.93;;;;;;;;;;5070766;28;20367;-72
2023/09/16 04:15:11;;;;;;;39.83;12.60;;;;;;;;;;5069479;28;20047;-72
2023/09/16 04:17:36;;;;;;;48.88;15.10;;;;;;;;;;5069413;28;20016;-70
2023/09/16 04:20:05;;;;;;;25.65;10.98;;;;;;;;;;5068874;28;20043;-70
2023/09/16 04:22:32;;;;;;;25.23;12.02;;;;;;;;;;5085711;28;20473;-71
2023/09/16 04:25:00;;;;;;;19.92;10.48;;;;;;;;;;5069128;28;20070;-71
2023/09/16 04:27:27;;;;;;;19.70;11.95;;;;;;;;;;5069473;28;20017;-71
2023/09/16 04:29:53;;;;;;;23.52;13.82;;;;;;;;;;5071202;28;20033;-72
2023/09/16 04:32:19;;;;;;;32.47;14.45;;;;;;;;;;5073240;28;20427;-70
2023/09/16 04:34:45;;;;;;;32.85;15.15;;;;;;;;;;5072405;28;20461;-72
2023/09/16 04:37:12;;;;;;;23.65;14.52;;;;;;;;;;5073021;28;20052;-71
2023/09/16 04:39:38;;;;;;;27.42;14.27;;;;;;;;;;5072879;28;20098;-71
2023/09/16 04:42:04;;;;;;;22.30;13.35;;;;;;;;;;5074633;28;20457;-72
2023/09/16 04:44:30;;;;;;;15.80;10.07;;;;;;;;;;5073582;28;20401;-72
2023/09/16 04:46:55;;;;;;;17.20;9.48;;;;;;;;;;5075147;28;20017;-71
2023/09/16 04:49:25;;;;;;;19.30;7.90;;;;;;;;;;5065379;28;20123;-71
2023/09/16 04:51:50;;;;;;;11.27;6.95;;;;;;;;;;5074624;28;20048;-72
2023/09/16 04:54:16;;;;;;;14.05;7.30;;;;;;;;;;5074829;28;20116;-72
2023/09/16 04:56:43;;;;;;;16.63;7.90;;;;;;;;;;5075071;28;20024;-71
2023/09/16 04:59:08;;;;;;;15.48;7.63;;;;;;;;;;5074297;28;20418;-71
2023/09/16 05:01:34;;;;;;;13.80;7.47;;;;;;;;;;5072901;28;20111;-70
2023/09/16 05:04:00;;;;;;;16.10;7.10;;;;;;;;;;5056238;28;20037;-70
2023/09/16 05:06:29;;;;;;;11.27;7.30;;;;;;;;;;5073223;28;20016;-71
2023/09/16 05:08:55;;;;;;;13.70;7.97;;;;;;;;;;5072538;28;20425;-71
2023/09/16 05:11:22;;;;;;;13.95;7.78;;;;;;;;;;5073886;28;20024;-71
2023/09/16 05:13:52;;;;;;;17.77;7.70;;;;;;;;;;5072615;28;20120;-71
2023/09/16 05:16:18;;;;;;;15.98;6.63;;;;;;;;;;5072683;28;20485;-71
2023/09/16 05:18:44;;;;;;;13.18;7.30;;;;;;;;;;5072557;28;20073;-71
2023/09/16 05:21:10;;;;;;;13.40;7.00;;;;;;;;;;5073481;28;20063;-71
2023/09/16 05:23:37;;;;;;;23.85;8.38;;;;;;;;;;5055062;28;20056;-71
2023/09/16 05:26:05;;;;;;;14.98;8.10;;;;;;;;;;5071533;28;20051;-71
2023/09/16 05:28:36;;;;;;;14.60;7.53;;;;;;;;;;5069534;28;20025;-70
2023/09/16 05:31:03;;;;;;;22.45;8.77;;;;;;;;;;5069354;28;20048;-71
2023/09/16 05:33:31;;;;;;;14.57;8.55;;;;;;;;;;5072935;28;20028;-70
2023/09/16 05:35:57;;;;;;;17.08;8.45;;;;;;;;;;5073532;28;20100;-72
2023/09/16 05:38:22;;;;;;;19.48;7.82;;;;;;;;;;5071946;28;20121;-71
2023/09/16 05:40:48;;;;;;;14.90;8.07;;;;;;;;;;5072341;28;20070;-72
2023/09/16 05:43:16;;;;;;;13.63;7.65;;;;;;;;;;5070717;28;20025;-71
2023/09/16 05:45:43;;;;;;;16.45;7.82;;;;;;;;;;5072254;28;20047;-72
2023/09/16 05:48:09;;;;;;;16.27;8.07;;;;;;;;;;5071988;28;20028;-72
2023/09/16 05:50:40;;;;;;;15.80;7.93;;;;;;;;;;5072267;28;20036;-71
2023/09/16 05:53:06;;;;;;;21.80;9.60;;;;;;;;;;5072055;28;20036;-72
2023/09/16 05:55:40;;;;;;;16.85;8.40;;;;;;;;;;5072226;28;20052;-72
2023/09/16 05:58:11;;;;;;;16.33;8.63;;;;;;;;;;5071833;28;20032;-72
2023/09/16 06:00:40;;;;;;;25.23;9.75;;;;;;;;;;5071679;28;20097;-72
2023/09/16 06:03:06;;;;;;;18.45;7.70;;;;;;;;;;5071855;28;20051;-72
2023/09/16 06:05:33;;;;;;;20.90;8.52;;;;;;;;;;5068421;28;20037;-71
2023/09/16 06:08:01;;;;;;;20.85;9.38;;;;;;;;;;5067766;28;20063;-72
2023/09/16 06:10:27;;;;;;;23.83;8.23;;;;;;;;;;5071408;28;20039;-72
2023/09/16 06:12:53;;;;;;;12.75;7.35;;;;;;;;;;5071717;28;20012;-72
2023/09/16 06:15:18;;;;;;;17.15;7.47;;;;;;;;;;5072465;28;20039;-73
2023/09/16 06:17:45;;;;;;;21.55;9.07;;;;;;;;;;5071539;28;20027;-72
2023/09/16 06:20:11;;;;;;;18.15;8.32;;;;;;;;;;5071224;28;20139;-73
2023/09/16 06:22:36;;;;;;;19.42;7.50;;;;;;;;;;5071466;28;20498;-72
2023/09/16 06:25:02;;;;;;;16.35;7.43;;;;;;;;;;5072542;28;20075;-73
2023/09/16 06:27:29;;;;;;;15.38;7.40;;;;;;;;;;5071404;28;20021;-72
2023/09/16 06:29:55;;;;;;;17.65;6.63;;;;;;;;;;5071130;28;20032;-71
2023/09/16 06:32:21;;;;;;;17.38;6.28;;;;;;;;;;5070970;28;20497;-72
2023/09/16 06:34:51;;;;;;;16.92;6.32;;;;;;;;;;5070719;28;20066;-72
2023/09/16 06:37:17;;;;;;;14.00;6.35;;;;;;;;;;5071839;28;20032;-71
2023/09/16 06:39:45;;;;;;;11.27;6.80;;;;;;;;;;5067218;28;20055;-71
2023/09/16 06:42:13;;;;;;;21.48;6.70;;;;;;;;;;5067915;28;20085;-71
2023/09/16 06:44:41;;;;;;;11.73;5.43;;;;;;;;;;5070834;28;20114;-71
2023/09/16 06:47:08;;;;;;;15.95;5.35;;;;;;;;;;5071780;28;20037;-70
2023/09/16 06:49:34;;;;;;;13.38;4.70;;;;;;;;;;5063705;28;20020;-69
2023/09/16 06:52:00;;;;;;;10.27;5.50;;;;;;;;;;5070744;28;20036;-69
2023/09/16 06:54:26;;;;;;;20.90;5.07;;;;;;;;;;5071506;28;20035;-69
2023/09/16 06:56:52;;;;;;;12.38;5.70;;;;;;;;;;5071661;28;20457;-69
2023/09/16 06:59:18;;;;;;;13.35;5.93;;;;;;;;;;5087301;28;20297;-71
2023/09/16 07:01:43;;;;;;;22.85;6.10;;;;;;;;;;5071596;28;20078;-71
2023/09/16 07:04:09;;;;;;;15.07;4.95;;;;;;;;;;5071014;28;20375;-70
2023/09/16 07:06:35;;;;;;;13.85;5.53;;;;;;;;;;5071345;28;20036;-70
2023/09/16 07:09:00;;;;;;;13.95;4.85;;;;;;;;;;5071391;28;20100;-69
2023/09/16 07:11:26;;;;;;;15.05;5.00;;;;;;;;;;5071019;28;20047;-71
2023/09/16 07:13:53;;;;;;;11.05;4.63;;;;;;;;;;5072026;28;20052;-69
2023/09/16 07:16:22;;;;;;;8.68;4.00;;;;;;;;;;5071428;28;20090;-70
2023/09/16 07:18:47;;;;;;;8.73;4.38;;;;;;;;;;5071663;28;20044;-72
2023/09/16 07:21:13;;;;;;;15.88;5.80;;;;;;;;;;5071463;28;20086;-71
2023/09/16 07:23:39;;;;;;;13.48;5.53;;;;;;;;;;5071309;28;20021;-71
2023/09/16 07:26:05;;;;;;;16.77;5.30;;;;;;;;;;5071267;28;20127;-71
2023/09/16 07:28:30;;;;;;;13.00;5.05;;;;;;;;;;5071627;28;20032;-70
2023/09/16 07:30:56;;;;;;;13.15;5.28;;;;;;;;;;5070867;28;20111;-69
2023/09/16 07:33:22;;;;;;;12.73;5.18;;;;;;;;;;5071322;28;20025;-70
2023/09/16 07:35:49;;;;;;;13.25;4.90;;;;;;;;;;5071553;28;20036;-70
2023/09/16 07:38:15;;;;;;;14.98;4.45;;;;;;;;;;5071134;28;20107;-72
2023/09/16 07:40:41;;;;;;;10.77;4.20;;;;;;;;;;5070612;28;20128;-71
2023/09/16 07:43:11;;;;;;;12.75;4.53;;;;;;;;;;5070958;28;20024;-71
2023/09/16 07:45:38;;;;;;;14.43;4.72;;;;;;;;;;5070922;28;20059;-70
2023/09/16 07:48:07;;;;;;;13.80;4.30;;;;;;;;;;5069688;28;20435;-71
2023/09/16 07:50:33;;;;;;;11.88;4.60;;;;;;;;;;5071365;28;20032;-71
2023/09/16 07:53:00;;;;;;;10.68;4.40;;;;;;;;;;5071174;28;20029;-71
2023/09/16 07:55:26;;;;;;;10.15;4.32;;;;;;;;;;5070355;28;20048;-71
2023/09/16 07:57:52;;;;;;;12.68;4.70;;;;;;;;;;5071544;28;20032;-70
2023/09/16 08:00:17;;;;;;;16.27;4.75;;;;;;;;;;5071171;28;20501;-70
2023/09/16 08:02:43;;;;;;;12.02;4.38;;;;;;;;;;5070917;28;20024;-70
2023/09/16 08:05:09;;;;;;;9.98;3.58;;;;;;;;;;5074012;28;20111;-70
2023/09/16 08:07:34;;;;;;;13.90;3.58;;;;;;;;;;5075237;28;20032;-71
2023/09/16 08:10:02;;;;;;;15.43;4.00;;;;;;;;;;5074643;28;20048;-71
2023/09/16 08:12:27;;;;;;;8.85;3.22;;;;;;;;;;5075345;28;20027;-72
2023/09/16 08:14:53;;;;;;;12.93;4.03;;;;;;;;;;5075681;28;20028;-71
2023/09/16 08:17:19;;;;;;;12.50;3.72;;;;;;;;;;5074680;28;20457;-70
2023/09/16 08:19:44;;;;;;;11.02;3.30;;;;;;;;;;5075028;28;20044;-71
2023/09/16 08:22:10;;;;;;;11.38;3.85;;;;;;;;;;5074700;28;20331;-70
2023/09/16 08:24:36;;;;;;;9.32;3.45;;;;;;;;;;5075384;28;20044;-72
2023/09/16 08:27:01;;;;;;;13.57;4.15;;;;;;;;;;5075143;28;20028;-71
2023/09/16 08:29:28;;;;;;;12.57;4.32;;;;;;;;;;5075348;28;20036;-71
2023/09/16 08:31:53;;;;;;;11.52;3.95;;;;;;;;;;5075155;28;20509;-71
2023/09/16 08:34:19;;;;;;;10.45;3.67;;;;;;;;;;5074406;28;20036;-70
2023/09/16 08:36:46;;;;;;;13.73;4.30;;;;;;;;;;5074326;28;20201;-72
2023/09/16 08:39:12;;;;;;;8.20;3.83;;;;;;;;;;5074420;28;20036;-71
2023/09/16 08:41:49;;;;;;;11.23;3.65;;;;;;;;;;5072925;28;20032;-71
2023/09/16 08:44:21;;;;;;;11.98;3.75;;;;;;;;;;5074469;28;20128;-70
2023/09/16 08:46:55;;;;;;;12.57;3.95;;;;;;;;;;5074225;28;20037;-71
2023/09/16 08:49:23;;;;;;;9.85;3.40;;;;;;;;;;5072841;28;20492;-73
2023/09/16 08:51:53;;;;;;;11.18;3.85;;;;;;;;;;5074072;28;20477;-72
2023/09/16 08:54:21;;;;;;;24.17;3.80;;;;;;;;;;5074290;28;20503;-72
2023/09/16 08:56:48;;;;;;;11.40;3.88;;;;;;;;;;5074110;28;20389;-73
2023/09/16 08:59:14;;;;;;;11.23;3.90;;;;;;;;;;5074223;28;20032;-72
2023/09/16 09:01:42;;;;;;;9.73;3.55;;;;;;;;;;5074003;28;20055;-71
2023/09/16 09:04:09;;;;;;;11.68;3.28;;;;;;;;;;5074018;28;20131;-73
2023/09/16 09:06:36;;;;;;;12.90;3.78;;;;;;;;;;5074193;28;20052;-72
2023/09/16 09:09:02;;;;;;;9.82;3.70;;;;;;;;;;5074288;28;20056;-72
2023/09/16 09:11:31;;;;;;;10.65;4.00;;;;;;;;;;5073824;28;20020;-73
2023/09/16 09:13:59;;;;;;;17.77;4.47;;;;;;;;;;5073531;28;20501;-72
2023/09/16 09:16:28;;;;;;;18.58;3.92;;;;;;;;;;5073046;28;20249;-73
2023/09/16 09:18:56;;;;;;;10.00;3.60;;;;;;;;;;5073939;28;20044;-73
2023/09/16 09:21:22;;;;;;;16.52;3.20;;;;;;;;;;5073461;28;20142;-72
2023/09/16 09:23:48;;;;;;;14.45;3.95;;;;;;;;;;5074167;28;20462;-72
2023/09/16 09:26:14;;;;;;;13.77;4.82;;;;;;;;;;5072175;28;20058;-73
2023/09/16 09:28:45;;;;;;;13.77;5.22;;;;;;;;;;5073437;28;20054;-72
2023/09/16 09:31:11;;;;;;;11.93;3.65;;;;;;;;;;5073248;28;20119;-72
2023/09/16 09:33:44;;;;;;;12.77;3.42;;;;;;;;;;5074026;28;20174;-72
2023/09/16 09:36:12;;;;;;;9.00;3.20;;;;;;;;;;5074006;28;20123;-70
2023/09/16 09:38:42;;;;;;;8.40;3.45;;;;;;;;;;5073400;28;20032;-73
2023/09/16 09:41:09;;;;;;;16.83;9.60;;;;;;;;;;5073364;28;20414;-70
2023/09/16 09:43:35;;;;;;;15.63;5.88;;;;;;;;;;5073059;28;20032;-71
2023/09/16 09:46:03;;;;;;;17.40;6.25;;;;;;;;;;5073217;28;20036;-71
2023/09/16 09:48:33;;;;;;;9.05;3.33;;;;;;;;;;5073349;28;20327;-72
2023/09/16 09:51:00;;;;;;;9.98;3.30;;;;;;;;;;5072960;28;20046;-72
2023/09/16 09:53:26;;;;;;;17.10;4.18;;;;;;;;;;5072700;28;20029;-71
2023/09/16 09:55:53;;;;;;;15.43;4.05;;;;;;;;;;5072698;28;20047;-72
2023/09/16 09:58:19;;;;;;;12.70;3.90;;;;;;;;;;5071579;28;20096;-73
2023/09/16 10:00:50;;;;;;;11.65;3.70;;;;;;;;;;5072361;28;20043;-73
2023/09/16 10:03:20;;;;;;;14.82;3.72;;;;;;;;;;5072082;28;20513;-72
2023/09/16 10:05:46;;;;;;;10.93;3.70;;;;;;;;;;5072815;28;20036;-72
2023/09/16 10:08:13;;;;;;;16.27;4.30;;;;;;;;;;5072828;28;20024;-71
2023/09/16 10:10:40;;;;;;;9.32;4.45;;;;;;;;;;5071069;28;20478;-71
2023/09/16 10:13:09;;;;;;;14.00;3.63;;;;;;;;;;5072643;28;20028;-73
2023/09/16 10:15:37;;;;;;;15.88;3.75;;;;;;;;;;5072866;28;20037;-72
2023/09/16 10:18:04;;;;;;;17.30;3.70;;;;;;;;;;5072457;28;20158;-71
2023/09/16 10:20:33;;;;;;;14.30;5.57;;;;;;;;;;5072761;28;20036;-72
2023/09/16 10:22:59;;;;;;;15.35;5.00;;;;;;;;;;5072545;28;20098;-72
2023/09/16 10:25:28;;;;;;;17.13;4.18;;;;;;;;;;5071783;28;20063;-71
2023/09/16 10:28:03;;;;;;;13.82;4.40;;;;;;;;;;5070526;28;20033;-71
2023/09/16 10:30:32;;;;;;;10.00;3.55;;;;;;;;;;5072356;28;20086;-72
2023/09/16 10:33:04;;;;;;;11.23;3.75;;;;;;;;;;5072755;28;20028;-71
2023/09/16 10:35:31;;;;;;;12.57;3.92;;;;;;;;;;5072408;28;20040;-71
2023/09/16 10:38:00;;;;;;;11.80;3.33;;;;;;;;;;5072570;28;20046;-71
2023/09/16 10:40:26;;;;;;;14.05;4.80;;;;;;;;;;5071973;28;20063;-72
2023/09/16 10:42:53;;;;;;;11.48;3.60;;;;;;;;;;5070759;28;20028;-72
2023/09/16 10:45:21;;;;;;;10.32;3.80;;;;;;;;;;5072209;28;20043;-71
2023/09/16 10:47:48;;;;;;;12.27;4.07;;;;;;;;;;5072679;28;20431;-72
2023/09/16 10:50:15;;;;;;;16.60;3.55;;;;;;;;;;5072166;28;20489;-72
2023/09/16 10:52:41;;;;;;;11.60;3.67;;;;;;;;;;5072165;28;20021;-71
2023/09/16 10:55:19;;;;;;;12.93;3.55;;;;;;;;;;5072238;28;20040;-72
2023/09/16 10:58:06;;;;;;;11.57;3.58;;;;;;;;;;5072044;28;20033;-71
2023/09/16 11:00:47;;;;;;;15.23;3.42;;;;;;;;;;5071785;28;20044;-72
2023/09/16 11:03:16;;;;;;;11.02;3.45;;;;;;;;;;5071696;28;20120;-70
2023/09/16 11:05:41;;;;;;;12.60;3.15;;;;;;;;;;5071821;28;20074;-71
2023/09/16 11:08:08;;;;;;;13.90;3.90;;;;;;;;;;5070758;28;20024;-72
2023/09/16 11:10:35;;;;;;;14.60;3.10;;;;;;;;;;5070550;28;20021;-71
2023/09/16 11:13:02;;;;;;;11.57;3.50;;;;;;;;;;5071631;28;20398;-71
2023/09/16 11:15:32;;;;;;;15.90;3.30;;;;;;;;;;5071778;28;20044;-71
2023/09/16 11:18:07;;;;;;;12.48;3.50;;;;;;;;;;5071616;28;20134;-72
2023/09/16 11:20:34;;;;;;;9.18;3.80;;;;;;;;;;5071873;28;20115;-73
2023/09/16 11:23:02;;;;;;;15.15;4.97;;;;;;;;;;5071775;28;20107;-72
2023/09/16 11:25:39;;;;;;;10.23;3.47;;;;;;;;;;5071646;28;20050;-72
2023/09/16 11:28:10;;;;;;;14.25;3.92;;;;;;;;;;5087090;28;20036;-71
2023/09/16 11:30:37;;;;;;;14.63;3.85;;;;;;;;;;5071226;28;20062;-73
2023/09/16 11:33:08;;;;;;;13.75;3.80;;;;;;;;;;5070152;28;20025;-72
2023/09/16 11:35:38;;;;;;;20.35;5.80;;;;;;;;;;5071721;28;20582;-72
2023/09/16 11:38:04;;;;;;;9.85;3.70;;;;;;;;;;5071179;28;20029;-71
2023/09/16 11:40:33;;;;;;;8.23;3.25;;;;;;;;;;5071342;28;20024;-71
2023/09/16 11:43:00;;;;;;;8.40;3.35;;;;;;;;;;5071498;28;20036;-72
2023/09/16 11:45:28;;;;;;;11.43;3.33;;;;;;;;;;5071712;28;20098;-72
2023/09/16 11:47:54;;;;;;;12.05;4.07;;;;;;;;;;5086985;28;20029;-71
2023/09/16 11:50:24;;;;;;;11.55;3.30;;;;;;;;;;5070696;28;20035;-73
2023/09/16 11:52:50;;;;;;;8.32;3.20;;;;;;;;;;5070056;28;20108;-72
2023/09/16 11:55:17;;;;;;;13.95;4.13;;;;;;;;;;5085782;28;20482;-73
2023/09/16 11:57:45;;;;;;;9.50;3.47;;;;;;;;;;5070392;28;20029;-72
2023/09/16 12:00:11;;;;;;;10.30;3.55;;;;;;;;;;5070762;28;20059;-71
2023/09/16 12:02:38;;;;;;;12.05;3.45;;;;;;;;;;5070183;28;20482;-72
2023/09/16 12:05:05;;;;;;;8.60;3.30;;;;;;;;;;5070073;28;20060;-72
2023/09/16 12:07:31;;;;;;;12.75;3.75;;;;;;;;;;5071189;28;20043;-72
2023/09/16 12:10:03;;;;;;;8.82;3.00;;;;;;;;;;5071322;28;20472;-72
2023/09/16 12:12:29;;;;;;;6.40;2.57;;;;;;;;;;5071339;28;20467;-72
2023/09/16 12:15:00;;;;;;;13.50;3.10;;;;;;;;;;5071235;28;20040;-71
2023/09/16 12:17:26;;;;;;;8.48;2.85;;;;;;;;;;5071181;28;20109;-72
2023/09/16 12:19:53;;;;;;;12.27;3.50;;;;;;;;;;5069519;28;20470;-72
2023/09/16 12:22:20;;;;;;;13.13;3.85;;;;;;;;;;5069513;28;20064;-72
2023/09/16 12:24:46;;;;;;;9.07;3.88;;;;;;;;;;5069589;28;20052;-72
2023/09/16 12:27:13;;;;;;;7.03;3.10;;;;;;;;;;5071295;28;20036;-72
2023/09/16 12:29:38;;;;;;;11.48;2.97;;;;;;;;;;5070444;28;20016;-71
2023/09/16 12:32:13;;;;;;;12.98;3.45;;;;;;;;;;5070338;28;20111;-73
2023/09/16 12:34:39;;;;;;;12.30;3.42;;;;;;;;;;5070741;28;20458;-71
2023/09/16 12:37:05;;;;;;;8.98;2.92;;;;;;;;;;5070578;28;20066;-71
2023/09/16 12:39:35;;;;;;;9.85;3.10;;;;;;;;;;5071093;28;20029;-72
2023/09/16 12:42:07;;;;;;;9.32;3.05;;;;;;;;;;5070658;28;20389;-72
2023/09/16 12:44:36;;;;;;;16.77;3.95;;;;;;;;;;5070841;28;20024;-73
2023/09/16 12:47:03;;;;;;;16.10;3.65;;;;;;;;;;5070690;28;20040;-71
2023/09/16 12:49:29;;;;;;;9.75;2.90;;;;;;;;;;5070850;28;20036;-72
2023/09/16 12:51:56;;;;;;;10.65;3.55;;;;;;;;;;5074128;28;20051;-73
2023/09/16 12:54:22;;;;;;;7.75;3.28;;;;;;;;;;5074391;28;20517;-72
2023/09/16 12:56:49;;;;;;;13.07;3.70;;;;;;;;;;5074140;28;20028;-71
2023/09/16 12:59:15;;;;;;;9.55;3.28;;;;;;;;;;5074384;28;20040;-73
2023/09/16 13:01:42;;;;;;;11.52;3.40;;;;;;;;;;5074134;28;20033;-73
2023/09/16 13:04:08;;;;;;;7.32;3.00;;;;;;;;;;5074398;28;20035;-71
2023/09/16 13:06:34;;;;;;;11.20;3.30;;;;;;;;;;5072533;28;20025;-72
2023/09/16 13:09:01;;;;;;;9.07;3.65;;;;;;;;;;5074551;28;20103;-73
2023/09/16 13:11:27;;;;;;;9.98;3.40;;;;;;;;;;5073126;28;20103;-72
2023/09/16 13:13:55;;;;;;;10.00;3.35;;;;;;;;;;5073334;28;20028;-73
2023/09/16 13:16:35;;;;;;;11.05;3.40;;;;;;;;;;5073794;28;20027;-73
2023/09/16 13:19:02;;;;;;;9.60;3.60;;;;;;;;;;5074002;28;20398;-73
2023/09/16 13:21:31;;;;;;;11.02;3.63;;;;;;;;;;5074362;28;20047;-73
2023/09/16 13:23:57;;;;;;;6.43;3.25;;;;;;;;;;5073962;28;20028;-73
2023/09/16 13:26:23;;;;;;;12.60;3.05;;;;;;;;;;5072264;28;20074;-72
2023/09/16 13:28:57;;;;;;;8.35;3.20;;;;;;;;;;5073348;28;20041;-73
2023/09/16 13:31:25;;;;;;;6.30;2.75;;;;;;;;;;5073355;28;20103;-71
2023/09/16 13:34:01;;;;;;;16.55;3.92;;;;;;;;;;5073784;28;20517;-72
2023/09/16 13:36:37;;;;;;;10.38;3.30;;;;;;;;;;5073486;28;20067;-73
2023/09/16 13:39:04;;;;;;;9.45;3.10;;;;;;;;;;5073330;28;20036;-72
2023/09/16 13:41:30;;;;;;;7.50;3.05;;;;;;;;;;5073447;28;20016;-73
2023/09/16 13:43:55;;;;;;;10.27;2.63;;;;;;;;;;5073525;28;20048;-72
2023/09/16 13:46:24;;;;;;;8.52;3.20;;;;;;;;;;5073415;28;20031;-73
2023/09/16 13:48:50;;;;;;;9.15;3.42;;;;;;;;;;5072845;28;20043;-73
2023/09/16 13:51:17;;;;;;;11.30;3.42;;;;;;;;;;5073530;28;20026;-71
2023/09/16 13:53:43;;;;;;;12.95;3.85;;;;;;;;;;5073319;28;20058;-72
2023/09/16 13:56:11;;;;;;;9.07;3.38;;;;;;;;;;5073462;28;20044;-71
2023/09/16 13:58:38;;;;;;;7.65;3.33;;;;;;;;;;5073274;28;20029;-72
2023/09/16 14:01:04;;;;;;;7.60;3.30;;;;;;;;;;5088792;28;20381;-72
2023/09/16 14:03:30;;;;;;;10.00;3.22;;;;;;;;;;5073332;28;20028;-72
2023/09/16 14:05:56;;;;;;;12.48;3.08;;;;;;;;;;5073943;28;20024;-74
2023/09/16 14:08:22;;;;;;;8.82;3.13;;;;;;;;;;5074011;28;20687;-72
2023/09/16 14:10:47;;;;;;;7.82;2.80;;;;;;;;;;5074127;28;20100;-73
2023/09/16 14:13:13;;;;;;;8.30;3.10;;;;;;;;;;5074208;28;20133;-72
2023/09/16 14:15:39;;;;;;;9.65;3.60;;;;;;;;;;5074270;28;20024;-73
2023/09/16 14:18:07;;;;;;;9.95;3.42;;;;;;;;;;5073745;28;20040;-72
2023/09/16 14:20:33;;;;;;;10.63;3.40;;;;;;;;;;5071279;28;20389;-72
2023/09/16 14:23:01;;;;;;;7.68;3.05;;;;;;;;;;5071513;28;20036;-72
2023/09/16 14:25:27;;;;;;;7.88;3.22;;;;;;;;;;5071299;28;20070;-72
2023/09/16 14:27:54;;;;;;;12.38;3.20;;;;;;;;;;5071841;28;20105;-72
2023/09/16 14:30:20;;;;;;;8.13;3.00;;;;;;;;;;5071444;28;20032;-72